Time;durP1;ratioP1;P1;durP2;ratioP2;P2;SDS_P1;SDS_P2;PMS_P1;PMS_P2;Temp;Humidity;BMP_temperature;BMP_pressure;BME280_temperature;BME280_humidity;BME280_pressure;Samples;Min_cycle;Max_cycle;Signal;HPM_P1;HPM_P2
2021/11/18 00:01:52;;;;;;;41.50;18.80;;;;;;;-2.54;72.16;100365.51;106212;1316;22446;-61
2021/11/18 00:04:20;;;;;;;33.20;17.60;;;;;;;-2.53;71.92;100365.44;106012;1316;138526;-62
2021/11/18 00:06:49;;;;;;;46.80;18.70;;;;;;;-2.55;72.02;100365.70;106259;1316;23247;-60
2021/11/18 00:09:19;;;;;;;39.60;19.30;;;;;;;-2.60;71.93;100362.14;106203;1316;24336;-61
2021/11/18 00:11:49;;;;;;;42.10;18.70;;;;;;;-2.61;71.98;100367.11;106142;1316;138002;-61
2021/11/18 00:14:18;;;;;;;37.90;20.10;;;;;;;-2.64;72.08;100365.76;106237;1316;22481;-62
2021/11/18 00:16:46;;;;;;;37.80;18.60;;;;;;;-2.65;72.08;100364.45;106133;1316;139167;-62
2021/11/18 00:19:14;;;;;;;33.80;17.90;;;;;;;-2.68;72.28;100364.55;106258;1316;22463;-62
2021/11/18 00:21:43;;;;;;;37.30;17.20;;;;;;;-2.68;72.21;100365.64;106147;1316;138583;-62
2021/11/18 00:24:12;;;;;;;38.20;18.50;;;;;;;-2.69;72.44;100364.20;106242;1316;23313;-60
2021/11/18 00:26:40;;;;;;;37.60;19.60;;;;;;;-2.72;72.24;100361.80;106202;1320;22405;-62
2021/11/18 00:29:08;;;;;;;41.10;20.50;;;;;;;-2.74;72.33;100359.36;106131;1315;138261;-62
2021/11/18 00:31:39;;;;;;;34.40;17.80;;;;;;;-2.75;72.38;100361.63;106244;1316;22529;-60
2021/11/18 00:34:08;;;;;;;41.00;20.20;;;;;;;-2.78;72.36;100361.89;106134;1316;140966;-62
2021/11/18 00:36:37;;;;;;;39.10;19.00;;;;;;;-2.77;72.40;100367.09;106210;1321;22274;-62
2021/11/18 00:39:08;;;;;;;44.60;19.00;;;;;;;-2.78;72.36;100367.39;106262;1316;22929;-57
2021/11/18 00:41:36;;;;;;;36.30;20.10;;;;;;;-2.80;72.45;100364.06;106064;1315;138371;-60
2021/11/18 00:44:05;;;;;;;41.30;20.70;;;;;;;-2.82;72.42;100362.49;106235;1316;23127;-60
2021/11/18 00:46:33;;;;;;;39.10;19.70;;;;;;;-2.85;72.47;100362.38;106145;1316;138122;-60
2021/11/18 00:49:02;;;;;;;43.90;20.80;;;;;;;-2.86;72.46;100362.48;105672;1316;22642;-59
2021/11/18 00:51:31;;;;;;;40.00;19.70;;;;;;;-2.89;72.21;100359.80;102130;1317;138412;-59
2021/11/18 00:54:00;;;;;;;49.10;21.50;;;;;;;-2.95;72.29;100360.32;106170;1316;23237;-59
2021/11/18 00:56:29;;;;;;;40.50;18.10;;;;;;;-3.01;72.35;100361.52;106138;1317;22467;-59
2021/11/18 00:58:59;;;;;;;49.10;22.40;;;;;;;-3.09;72.31;100354.80;106186;1315;139055;-59
2021/11/18 01:01:31;;;;;;;40.40;20.30;;;;;;;-3.14;72.19;100353.52;106196;1316;22480;-59
2021/11/18 01:04:02;;;;;;;39.60;20.20;;;;;;;-3.17;72.34;100351.71;106091;1317;139673;-59
2021/11/18 01:06:31;;;;;;;44.20;20.70;;;;;;;-3.19;72.49;100350.13;106190;1316;23215;-59
2021/11/18 01:08:59;;;;;;;40.50;19.70;;;;;;;-3.24;72.48;100346.45;106240;1315;22571;-59
2021/11/18 01:11:30;;;;;;;40.10;20.00;;;;;;;-3.23;72.43;100349.08;106091;1316;138382;-60
2021/11/18 01:14:01;;;;;;;39.90;19.80;;;;;;;-3.26;72.30;100348.30;106182;1316;22561;-60
2021/11/18 01:16:30;;;;;;;39.50;19.70;;;;;;;-3.30;72.20;100343.86;106072;1316;140064;-60
2021/11/18 01:18:59;;;;;;;43.20;21.00;;;;;;;-3.32;72.25;100341.31;105791;1315;22544;-60
2021/11/18 01:21:27;;;;;;;41.30;20.20;;;;;;;-3.36;72.27;100339.02;106161;1316;22390;-60
2021/11/18 01:23:56;;;;;;;43.80;20.20;;;;;;;-3.41;72.13;100339.66;106065;1318;139092;-59
2021/11/18 01:26:35;;;;;;;48.50;21.30;;;;;;;-3.46;72.27;100337.81;106174;1317;22529;-60
2021/11/18 01:29:03;;;;;;;40.10;19.80;;;;;;;-3.50;72.26;100339.66;106122;1316;138331;-59
2021/11/18 01:31:32;;;;;;;40.20;20.40;;;;;;;-3.57;72.29;100336.38;105997;1317;25486;-57
2021/11/18 01:34:01;;;;;;;47.40;22.20;;;;;;;-3.61;72.50;100336.80;106083;1316;139284;-60
2021/11/18 01:36:32;;;;;;;40.30;22.00;;;;;;;-3.64;72.54;100338.33;106169;1316;22543;-60
2021/11/18 01:39:04;;;;;;;42.70;20.60;;;;;;;-3.65;72.83;100337.21;106175;1317;22457;-59
2021/11/18 01:41:36;;;;;;;43.30;22.40;;;;;;;-3.66;72.92;100338.73;105914;1318;139375;-60
2021/11/18 01:44:15;;;;;;;43.90;20.10;;;;;;;-3.66;73.04;100331.71;106204;1315;22468;-60
2021/11/18 01:46:43;;;;;;;40.70;20.40;;;;;;;-3.65;73.09;100331.09;106068;1318;138825;-61
2021/11/18 01:49:19;;;;;;;50.20;21.70;;;;;;;-3.65;73.10;100329.36;106165;1316;23628;-60
2021/11/18 01:51:49;;;;;;;39.90;20.10;;;;;;;-3.64;73.05;100328.58;106137;1316;144597;-60
2021/11/18 01:54:19;;;;;;;41.50;20.40;;;;;;;-3.65;73.08;100328.08;106127;1319;22556;-60
2021/11/18 01:56:47;;;;;;;37.70;17.50;;;;;;;-3.64;72.89;100328.94;105346;1322;22619;-60
2021/11/18 01:59:17;;;;;;;36.80;19.20;;;;;;;-3.66;72.73;100326.64;106031;1318;138488;-59
2021/11/18 02:01:55;;;;;;;37.40;18.90;;;;;;;-3.69;72.75;100329.95;106093;1315;23173;-60
2021/11/18 02:05:13;;;;;;;41.50;18.60;;;;;;;-3.70;72.76;100324.55;106150;1314;139060;-60
2021/11/18 02:07:42;;;;;;;36.30;18.20;;;;;;;-3.72;72.83;100318.67;106037;1323;22412;-60
2021/11/18 02:10:21;;;;;;;40.70;19.30;;;;;;;-3.74;72.84;100309.85;105949;1319;140138;-59
2021/11/18 02:12:49;;;;;;;40.50;18.80;;;;;;;-3.76;72.94;100304.90;106098;1318;22494;-58
2021/11/18 02:15:22;;;;;;;40.50;19.00;;;;;;;-3.80;73.08;100295.15;106160;1317;22527;-59
2021/11/18 02:17:51;;;;;;;36.30;17.80;;;;;;;-3.82;73.15;100296.11;105960;1322;139383;-59
2021/11/18 02:20:21;;;;;;;37.60;18.60;;;;;;;-3.84;73.28;100294.83;106163;1316;22489;-58
2021/11/18 02:22:49;;;;;;;38.70;17.60;;;;;;;-3.83;73.48;100295.84;105967;1318;140425;-59
2021/11/18 02:25:19;;;;;;;37.60;19.80;;;;;;;-3.81;73.56;100295.66;106113;1319;22478;-58
2021/11/18 02:27:47;;;;;;;36.00;19.20;;;;;;;-3.81;73.53;100293.70;105712;1321;138725;-59
2021/11/18 02:30:15;;;;;;;37.60;19.20;;;;;;;-3.83;73.55;100294.18;106136;1317;22465;-59
2021/11/18 02:32:43;;;;;;;38.00;18.60;;;;;;;-3.82;73.74;100297.68;106079;1318;22709;-58
2021/11/18 02:35:26;;;;;;;35.70;19.50;;;;;;;-3.82;73.57;100302.84;105294;1324;140333;-59
2021/11/18 02:37:55;;;;;;;32.30;17.40;;;;;;;-3.83;73.64;100300.95;106128;1316;23257;-58
2021/11/18 02:40:23;;;;;;;35.30;18.80;;;;;;;-3.83;73.70;100291.85;106114;1317;138758;-59
2021/11/18 02:42:52;;;;;;;40.00;17.70;;;;;;;-3.82;73.86;100290.20;106203;1316;22297;-58
2021/11/18 02:45:28;;;;;;;38.50;18.80;;;;;;;-3.82;73.84;100287.20;106209;1315;23316;-58
2021/11/18 02:47:57;;;;;;;34.60;19.50;;;;;;;-3.83;73.82;100287.48;106135;1316;139275;-58
2021/11/18 02:50:29;;;;;;;34.80;20.70;;;;;;;-3.84;73.89;100286.00;106194;1316;23178;-58
2021/11/18 02:52:57;;;;;;;46.20;19.80;;;;;;;-3.85;73.79;100283.40;106221;1316;139495;-59
2021/11/18 02:55:28;;;;;;;37.50;19.80;;;;;;;-3.86;74.02;100286.00;106274;1319;22370;-58
2021/11/18 02:57:56;;;;;;;39.50;19.20;;;;;;;-3.87;74.05;100283.77;106033;1316;138717;-59
2021/11/18 03:00:31;;;;;;;34.50;19.00;;;;;;;-3.89;74.05;100285.89;106316;1316;22513;-58
2021/11/18 03:02:59;;;;;;;34.60;18.90;;;;;;;-3.89;74.10;100284.02;106248;1316;22382;-59
2021/11/18 03:05:27;;;;;;;33.50;18.60;;;;;;;-3.90;74.22;100279.26;106193;1316;138407;-60
2021/11/18 03:07:58;;;;;;;42.30;20.10;;;;;;;-3.87;74.20;100278.10;106272;1320;22493;-59
2021/11/18 03:10:27;;;;;;;38.00;19.70;;;;;;;-3.86;74.18;100279.25;106106;1316;139223;-61
2021/11/18 03:12:55;;;;;;;36.40;18.80;;;;;;;-3.87;74.23;100276.98;106242;1316;22632;-59
2021/11/18 03:15:24;;;;;;;38.10;20.00;;;;;;;-3.85;74.18;100282.16;105844;1317;22470;-59
2021/11/18 03:18:01;;;;;;;38.60;19.20;;;;;;;-3.85;74.22;100282.53;106117;1316;138466;-59
2021/11/18 03:20:30;;;;;;;37.90;18.90;;;;;;;-3.87;74.20;100277.54;106295;1316;22519;-59
2021/11/18 03:22:59;;;;;;;39.10;19.00;;;;;;;-3.88;74.17;100276.92;106221;1315;138623;-59
2021/11/18 03:25:30;;;;;;;34.60;17.90;;;;;;;-3.93;74.31;100270.00;106275;1316;22562;-59
2021/11/18 03:28:09;;;;;;;34.90;17.40;;;;;;;-3.93;74.35;100280.55;106176;1316;138690;-59
2021/11/18 03:30:40;;;;;;;41.30;18.70;;;;;;;-3.94;74.36;100278.42;106197;1316;22336;-59
2021/11/18 03:33:15;;;;;;;32.70;18.60;;;;;;;-3.97;74.48;100274.00;106240;1319;22986;-59
2021/11/18 03:35:43;;;;;;;44.50;19.40;;;;;;;-3.97;74.60;100273.90;106131;1316;139442;-58
2021/11/18 03:38:12;;;;;;;35.80;19.50;;;;;;;-3.99;74.41;100272.61;106222;1316;22291;-60
2021/11/18 03:40:40;;;;;;;40.20;19.50;;;;;;;-4.02;74.53;100270.86;106117;1316;139538;-60
2021/11/18 03:43:09;;;;;;;36.00;19.30;;;;;;;-4.06;74.69;100261.65;106191;1316;23268;-59
2021/11/18 03:45:39;;;;;;;33.40;18.10;;;;;;;-4.08;74.92;100262.86;106094;1317;138545;-61
2021/11/18 03:48:08;;;;;;;36.00;19.80;;;;;;;-4.10;75.01;100263.92;106265;1316;22499;-60
2021/11/18 03:50:38;;;;;;;38.00;17.90;;;;;;;-4.09;75.01;100264.77;105350;1320;22409;-60
2021/11/18 03:53:06;;;;;;;40.90;18.50;;;;;;;-4.08;74.97;100265.92;106103;1316;139465;-60
2021/11/18 03:55:34;;;;;;;42.60;19.70;;;;;;;-4.08;74.86;100265.23;106232;1316;23215;-60
2021/11/18 03:58:02;;;;;;;35.90;19.10;;;;;;;-4.10;74.86;100264.54;106233;1316;140855;-60
2021/11/18 04:00:31;;;;;;;37.30;18.20;;;;;;;-4.12;74.84;100261.16;106350;1321;22466;-60
2021/11/18 04:03:00;;;;;;;36.40;20.00;;;;;;;-4.15;74.85;100266.03;106141;1316;22625;-59
2021/11/18 04:05:33;;;;;;;37.30;19.60;;;;;;;-4.16;74.89;100257.20;105961;1316;138505;-58
2021/11/18 04:08:01;;;;;;;32.90;17.10;;;;;;;-4.15;74.88;100264.30;106346;1316;22595;-59
2021/11/18 04:10:31;;;;;;;40.40;21.10;;;;;;;-4.15;74.86;100267.07;106090;1315;139173;-59
2021/11/18 04:13:00;;;;;;;41.70;21.40;;;;;;;-4.12;74.76;100265.80;106205;1316;22274;-59
2021/11/18 04:15:28;;;;;;;35.30;19.20;;;;;;;-4.15;74.49;100265.86;106228;1315;22470;-58
2021/11/18 04:17:58;;;;;;;43.50;19.30;;;;;;;-4.19;74.51;100264.42;106139;1316;139220;-59
2021/11/18 04:20:31;;;;;;;40.30;20.50;;;;;;;-4.20;74.61;100263.92;105011;1316;22519;-59
2021/11/18 04:23:00;;;;;;;41.40;21.00;;;;;;;-4.22;74.75;100258.04;106122;1316;138578;-59
2021/11/18 04:25:29;;;;;;;35.30;19.20;;;;;;;-4.24;74.73;100255.91;106122;1316;22526;-59
2021/11/18 04:27:58;;;;;;;42.30;19.10;;;;;;;-4.25;74.71;100248.57;106241;1315;138897;-59
2021/11/18 04:30:30;;;;;;;42.70;21.50;;;;;;;-4.26;74.66;100239.23;106215;1316;22503;-59
2021/11/18 04:33:20;;;;;;;36.30;19.90;;;;;;;-4.27;74.72;100235.59;106183;1316;22524;-59
2021/11/18 04:35:48;;;;;;;40.10;19.60;;;;;;;-4.28;74.66;100234.08;106172;1315;138547;-59
2021/11/18 04:38:16;;;;;;;35.30;20.20;;;;;;;-4.29;75.03;100231.49;106282;1315;22565;-59
2021/11/18 04:40:45;;;;;;;34.10;20.20;;;;;;;-4.27;74.92;100225.50;103558;1317;140931;-58
2021/11/18 04:43:13;;;;;;;36.90;20.40;;;;;;;-4.24;75.16;100223.13;102290;1316;24314;-57
2021/11/18 04:45:42;;;;;;;42.10;21.40;;;;;;;-4.23;75.12;100222.30;102237;1316;139831;-59
2021/11/18 04:48:10;;;;;;;40.60;20.50;;;;;;;-4.23;75.04;100222.34;102249;1315;23993;-60
2021/11/18 04:50:39;;;;;;;39.20;19.50;;;;;;;-4.25;74.97;100215.92;102192;1316;22612;-57
2021/11/18 04:53:07;;;;;;;40.30;20.20;;;;;;;-4.26;75.27;100217.08;105647;1316;138561;-59
2021/11/18 04:55:38;;;;;;;40.00;19.90;;;;;;;-4.25;75.26;100219.31;106140;1317;22509;-60
2021/11/18 04:58:07;;;;;;;45.90;21.10;;;;;;;-4.24;75.35;100219.59;106110;1315;140602;-60
2021/11/18 05:00:38;;;;;;;41.70;21.70;;;;;;;-4.24;75.41;100216.52;106217;1315;22461;-59
2021/11/18 05:03:06;;;;;;;45.50;21.50;;;;;;;-4.22;75.56;100219.23;106178;1316;22489;-60
2021/11/18 05:05:35;;;;;;;39.00;20.40;;;;;;;-4.21;75.29;100222.27;106183;1316;138536;-60
2021/11/18 05:08:12;;;;;;;41.60;21.10;;;;;;;-4.20;75.30;100226.33;106255;1316;22478;-60
2021/11/18 05:10:42;;;;;;;47.90;22.60;;;;;;;-4.21;75.23;100225.30;106104;1315;138600;-59
2021/11/18 05:13:11;;;;;;;48.70;23.10;;;;;;;-4.27;75.09;100218.93;106242;1316;22949;-60
2021/11/18 05:15:48;;;;;;;41.90;20.10;;;;;;;-4.22;75.25;100223.08;106147;1316;139756;-60
2021/11/18 05:18:16;;;;;;;44.80;22.30;;;;;;;-4.22;75.25;100220.98;106178;1316;23458;-60
2021/11/18 05:20:44;;;;;;;38.20;19.60;;;;;;;-4.25;75.15;100216.98;106158;1319;22596;-59
2021/11/18 05:23:13;;;;;;;47.60;20.80;;;;;;;-4.27;75.48;100215.06;105947;1319;138477;-59
2021/11/18 05:25:50;;;;;;;36.10;19.30;;;;;;;-4.22;75.54;100220.96;106043;1325;23381;-59
2021/11/18 05:28:18;;;;;;;42.80;21.40;;;;;;;-4.21;75.62;100219.96;105983;1323;139967;-59
2021/11/18 05:30:46;;;;;;;40.50;21.60;;;;;;;-4.22;75.61;100217.21;105710;1321;22363;-58
2021/11/18 05:33:15;;;;;;;51.80;22.50;;;;;;;-4.20;75.73;100220.81;105679;1322;22794;-60
2021/11/18 05:35:45;;;;;;;51.00;25.20;;;;;;;-4.20;75.74;100220.61;105572;1322;139587;-60
2021/11/18 05:38:13;;;;;;;52.50;24.90;;;;;;;-4.19;75.93;100219.42;105669;1325;22508;-60
2021/11/18 05:40:44;;;;;;;42.60;22.80;;;;;;;-4.14;76.02;100220.57;105432;1324;138558;-59
2021/11/18 05:43:17;;;;;;;55.50;25.50;;;;;;;-4.13;76.05;100223.24;105554;1322;26022;-60
2021/11/18 05:45:45;;;;;;;45.50;24.40;;;;;;;-4.07;76.12;100229.08;105467;1325;141730;-60
2021/11/18 05:48:15;;;;;;;48.30;24.10;;;;;;;-4.02;76.00;100234.30;105542;1324;23029;-60
2021/11/18 05:50:55;;;;;;;45.60;22.00;;;;;;;-3.98;75.96;100234.01;105553;1321;22496;-60
2021/11/18 05:53:29;;;;;;;39.30;21.70;;;;;;;-3.95;75.87;100228.75;105311;1321;237111;-60
2021/11/18 05:55:58;;;;;;;42.20;22.00;;;;;;;-3.91;75.77;100229.14;105560;1324;22625;-59
2021/11/18 05:58:28;;;;;;;39.50;21.20;;;;;;;-3.88;75.69;100232.25;105625;1321;139641;-59
2021/11/18 06:01:01;;;;;;;42.90;23.70;;;;;;;-3.87;75.50;100235.10;105839;1319;22315;-60
2021/11/18 06:03:29;;;;;;;53.80;26.10;;;;;;;-3.88;75.41;100227.58;104772;1325;22571;-59
2021/11/18 06:05:57;;;;;;;56.90;27.30;;;;;;;-3.88;75.24;100231.54;105628;1321;138140;-60
2021/11/18 06:08:26;;;;;;;59.10;28.40;;;;;;;-3.89;75.39;100230.39;105866;1318;23293;-59
2021/11/18 06:11:01;;;;;;;57.40;26.60;;;;;;;-3.87;75.51;100227.30;106022;1316;138603;-58
2021/11/18 06:13:30;;;;;;;49.00;25.70;;;;;;;-3.84;75.72;100232.92;106038;1319;22414;-59
2021/11/18 06:15:58;;;;;;;48.60;25.50;;;;;;;-3.80;75.68;100230.00;106047;1316;138631;-58
2021/11/18 06:18:27;;;;;;;55.20;28.00;;;;;;;-3.74;75.86;100229.09;106132;1319;22476;-58
2021/11/18 06:20:55;;;;;;;59.90;28.40;;;;;;;-3.68;75.97;100228.97;106074;1315;23228;-58
2021/11/18 06:23:23;;;;;;;50.50;26.40;;;;;;;-3.61;75.90;100231.38;105723;1318;140335;-59
2021/11/18 06:25:52;;;;;;;54.10;26.70;;;;;;;-3.56;75.95;100229.42;106131;1316;22600;-58
2021/11/18 06:28:20;;;;;;;52.30;26.10;;;;;;;-3.51;75.87;100227.55;105985;1316;138756;-58
2021/11/18 06:30:55;;;;;;;52.80;26.40;;;;;;;-3.46;75.92;100227.61;106094;1319;22544;-58
2021/11/18 06:33:24;;;;;;;51.40;27.40;;;;;;;-3.39;75.98;100230.27;106138;1318;23240;-59
2021/11/18 06:35:55;;;;;;;54.90;25.70;;;;;;;-3.32;76.03;100224.23;105854;1318;140655;-58
2021/11/18 06:38:36;;;;;;;50.50;26.20;;;;;;;-3.25;76.03;100224.33;105844;1318;22393;-58
2021/11/18 06:41:04;;;;;;;58.80;27.60;;;;;;;-3.17;75.96;100222.05;105845;1318;140033;-58
2021/11/18 06:43:34;;;;;;;58.30;28.50;;;;;;;-3.11;75.97;100215.38;105867;1319;22371;-61
2021/11/18 06:46:03;;;;;;;54.40;28.70;;;;;;;-3.04;76.04;100210.88;105708;1318;138787;-58
2021/11/18 06:48:31;;;;;;;50.10;26.40;;;;;;;-2.97;75.89;100208.91;105824;1321;23303;-58
2021/11/18 06:51:11;;;;;;;51.10;25.40;;;;;;;-2.89;75.85;100207.30;105817;1318;22397;-58
2021/11/18 06:53:40;;;;;;;54.60;24.40;;;;;;;-2.82;75.88;100210.65;105757;1326;139516;-58
2021/11/18 06:56:09;;;;;;;50.70;24.40;;;;;;;-2.75;75.92;100206.61;105902;1318;22588;-58
2021/11/18 06:58:38;;;;;;;46.50;25.40;;;;;;;-2.69;75.94;100209.77;105786;1319;138793;-58
2021/11/18 07:01:07;;;;;;;48.20;24.90;;;;;;;-2.61;75.79;100208.44;105876;1321;22597;-58
2021/11/18 07:03:39;;;;;;;49.50;25.80;;;;;;;-2.54;75.70;100205.05;105902;1321;22549;-59
2021/11/18 07:06:12;;;;;;;61.60;29.40;;;;;;;-2.45;75.83;100205.46;105766;1318;140348;-60
2021/11/18 07:08:41;;;;;;;56.50;26.60;;;;;;;-2.38;75.82;100209.34;105845;1319;22385;-59
2021/11/18 07:11:10;;;;;;;49.40;25.80;;;;;;;-2.31;75.97;100213.58;105970;1319;138795;-59
2021/11/18 07:13:39;;;;;;;53.20;25.60;;;;;;;-2.25;75.90;100214.85;106080;1319;23069;-59
2021/11/18 07:16:21;;;;;;;52.50;26.50;;;;;;;-2.16;75.77;100214.48;106014;1318;139740;-59
2021/11/18 07:18:50;;;;;;;54.20;26.70;;;;;;;-2.08;75.73;100206.57;106065;1318;22404;-60
2021/11/18 07:21:22;;;;;;;54.80;27.80;;;;;;;-2.03;75.78;100199.40;106144;1319;23481;-59
2021/11/18 07:23:52;;;;;;;54.00;26.00;;;;;;;-1.92;75.62;100207.54;106005;1319;138812;-60
2021/11/18 07:26:21;;;;;;;55.60;26.40;;;;;;;-1.84;75.72;100210.03;106090;1318;22619;-58
2021/11/18 07:28:50;;;;;;;56.00;25.20;;;;;;;-1.75;75.61;100209.13;106016;1318;138472;-59
2021/11/18 07:31:19;;;;;;;58.10;24.30;;;;;;;-1.67;75.51;100209.28;106154;1316;22473;-59
2021/11/18 07:33:49;;;;;;;53.10;26.60;;;;;;;-1.58;75.60;100207.65;106050;1318;139544;-59
2021/11/18 07:36:17;;;;;;;57.90;25.70;;;;;;;-1.51;75.44;100206.33;106156;1317;22574;-59
2021/11/18 07:38:46;;;;;;;43.60;23.10;;;;;;;-1.46;75.33;100198.66;106140;1316;22511;-59
2021/11/18 07:41:14;;;;;;;50.00;24.80;;;;;;;-1.36;75.28;100200.84;106149;1315;139341;-61
2021/11/18 07:43:49;;;;;;;51.10;24.90;;;;;;;-1.28;75.27;100197.77;106196;1316;22464;-62
2021/11/18 07:47:03;;;;;;;52.40;25.70;;;;;;;-1.20;75.03;100188.90;105848;1315;139388;-62
2021/11/18 07:49:32;;;;;;;50.70;25.10;;;;;;;-1.10;75.06;100191.73;106223;1316;23259;-62
2021/11/18 07:52:02;;;;;;;46.80;23.40;;;;;;;-1.03;74.75;100187.73;106122;1315;144137;-62
2021/11/18 07:54:31;;;;;;;48.80;24.90;;;;;;;-0.95;74.67;100185.45;106219;1315;22653;-62
2021/11/18 07:57:05;;;;;;;51.60;26.10;;;;;;;-0.87;74.88;100182.09;106300;1316;22465;-62
2021/11/18 07:59:33;;;;;;;49.60;26.00;;;;;;;-0.79;74.71;100185.32;106007;1316;138353;-62
2021/11/18 08:02:01;;;;;;;48.50;25.40;;;;;;;-0.72;74.79;100180.43;106338;1320;22479;-62
2021/11/18 08:04:32;;;;;;;48.20;24.60;;;;;;;-0.65;74.46;100178.41;106036;1315;138853;-62
2021/11/18 08:07:03;;;;;;;47.20;23.30;;;;;;;-0.57;74.47;100181.60;106155;1319;22564;-62
2021/11/18 08:09:31;;;;;;;44.80;22.60;;;;;;;-0.50;74.31;100171.33;106310;1315;23172;-62
2021/11/18 08:12:03;;;;;;;44.60;24.40;;;;;;;-0.43;74.27;100168.69;106207;1315;138553;-62
2021/11/18 08:14:31;;;;;;;41.60;22.90;;;;;;;-0.35;74.14;100162.21;106138;1317;23282;-62
2021/11/18 08:17:00;;;;;;;43.70;23.10;;;;;;;-0.29;73.90;100160.80;106065;1316;140098;-62
2021/11/18 08:19:29;;;;;;;47.40;24.00;;;;;;;-0.22;73.85;100163.08;106220;1316;22545;-62
2021/11/18 08:22:06;;;;;;;41.30;23.60;;;;;;;-0.14;73.73;100162.32;106069;1316;138887;-62
2021/11/18 08:24:34;;;;;;;42.60;22.90;;;;;;;-0.06;73.69;100165.33;106166;1318;22479;-62
2021/11/18 08:27:02;;;;;;;45.90;23.60;;;;;;;0.02;73.41;100165.82;106194;1316;22534;-62
2021/11/18 08:29:34;;;;;;;46.70;22.50;;;;;;;0.10;73.62;100167.53;106102;1318;138279;-62
2021/11/18 08:32:04;;;;;;;44.90;24.00;;;;;;;0.18;73.40;100171.27;106214;1315;22461;-63
2021/11/18 08:34:44;;;;;;;45.00;23.00;;;;;;;0.25;73.05;100168.37;106106;1315;138333;-62
2021/11/18 08:37:15;;;;;;;46.60;22.10;;;;;;;0.34;73.09;100168.50;106194;1315;23087;-62
2021/11/18 08:39:46;;;;;;;46.80;23.00;;;;;;;0.42;73.08;100172.08;106172;1315;138186;-61
2021/11/18 08:42:16;;;;;;;50.00;24.00;;;;;;;0.52;73.24;100168.34;106336;1315;23197;-63
2021/11/18 08:44:44;;;;;;;49.70;25.40;;;;;;;0.61;72.61;100172.42;106134;1316;23679;-62
2021/11/18 08:47:13;;;;;;;52.40;25.80;;;;;;;0.69;72.80;100171.31;106120;1315;138119;-62
2021/11/18 08:49:41;;;;;;;47.60;25.70;;;;;;;0.77;72.74;100168.96;106340;1315;22470;-62
2021/11/18 08:52:12;;;;;;;42.60;24.00;;;;;;;0.83;72.69;100169.14;106045;1315;139070;-62
2021/11/18 08:54:48;;;;;;;52.60;26.40;;;;;;;0.89;72.33;100174.05;106219;1316;22522;-63
2021/11/18 08:57:16;;;;;;;46.60;26.90;;;;;;;0.96;72.15;100173.65;105089;1323;22471;-62
2021/11/18 09:00:09;;;;;;;50.90;26.40;;;;;;;1.03;72.33;100168.82;105918;1315;138389;-61
2021/11/18 09:02:42;;;;;;;42.40;23.80;;;;;;;1.11;72.24;100162.39;106298;1315;22476;-61
2021/11/18 09:05:11;;;;;;;44.20;23.20;;;;;;;1.17;71.72;100152.20;106078;1316;138398;-60
2021/11/18 09:07:40;;;;;;;48.30;23.80;;;;;;;1.24;71.95;100149.42;106305;1316;23635;-62
2021/11/18 09:10:08;;;;;;;52.00;25.00;;;;;;;1.29;71.81;100151.05;106095;1315;139555;-62
2021/11/18 09:12:37;;;;;;;44.50;23.80;;;;;;;1.36;71.82;100149.94;106191;1315;22457;-62
2021/11/18 09:15:06;;;;;;;45.20;25.00;;;;;;;1.42;71.77;100146.27;106232;1316;23217;-61
2021/11/18 09:17:34;;;;;;;41.30;23.30;;;;;;;1.50;71.61;100140.83;105996;1315;138319;-61
2021/11/18 09:20:18;;;;;;;42.40;24.20;;;;;;;1.58;71.47;100142.80;106203;1316;22472;-58
2021/11/18 09:22:48;;;;;;;47.40;25.20;;;;;;;1.62;71.16;100143.66;106222;1316;138669;-57
2021/11/18 09:25:17;;;;;;;41.80;23.80;;;;;;;1.67;71.08;100146.02;106195;1316;23296;-57
2021/11/18 09:27:48;;;;;;;50.30;23.50;;;;;;;1.71;70.97;100142.83;106071;1315;138226;-58
2021/11/18 09:30:25;;;;;;;42.90;24.80;;;;;;;1.75;70.78;100141.58;106201;1315;22506;-58
2021/11/18 09:32:56;;;;;;;39.90;23.70;;;;;;;1.81;70.74;100138.77;106096;1317;22538;-58
2021/11/18 09:35:31;;;;;;;43.90;23.50;;;;;;;1.86;70.60;100136.73;106172;1316;138293;-58
2021/11/18 09:38:05;;;;;;;44.50;23.90;;;;;;;1.90;70.55;100127.89;106181;1317;22500;-59
2021/11/18 09:40:58;;;;;;;45.70;24.10;;;;;;;1.95;70.37;100121.02;106062;1316;140084;-59
2021/11/18 09:43:43;;;;;;;38.30;22.10;;;;;;;2.01;70.46;100117.66;105965;1319;22990;-58
2021/11/18 09:46:26;;;;;;;46.80;23.20;;;;;;;2.05;70.52;100110.64;106034;1316;139328;-61
2021/11/18 09:49:03;;;;;;;41.40;23.50;;;;;;;2.10;70.31;100109.10;106128;1316;22626;-58
2021/11/18 09:52:05;;;;;;;41.30;23.60;;;;;;;2.15;70.31;100101.50;106152;1315;22493;-58
2021/11/18 09:58:04;;;;;;;39.00;23.90;;;;;;;2.32;70.04;100097.42;99401;1350;545701;-60
2021/11/18 10:00:53;;;;;;;39.30;22.80;;;;;;;2.36;69.91;100094.11;105006;1328;137049;-59
2021/11/18 10:03:30;;;;;;;39.90;21.80;;;;;;;2.40;69.86;100092.27;104840;1331;22538;-61
2021/11/18 10:05:59;;;;;;;41.10;22.90;;;;;;;2.44;70.02;100089.77;104837;1333;137939;-58
2021/11/18 10:08:31;;;;;;;37.90;21.20;;;;;;;2.49;69.92;100079.35;104868;1331;23494;-60
2021/11/18 10:11:28;;;;;;;42.70;23.00;;;;;;;2.55;69.79;100074.66;104673;1325;138793;-57
2021/11/18 10:14:08;;;;;;;36.90;21.30;;;;;;;2.60;69.71;100074.98;105050;1327;22726;-58
2021/11/18 10:16:45;;;;;;;37.10;23.20;;;;;;;2.64;69.62;100069.39;104880;1328;138020;-57
2021/11/18 10:19:34;;;;;;;34.50;20.30;;;;;;;2.67;69.60;100065.08;105178;1325;22525;-57
2021/11/18 10:22:03;;;;;;;34.10;21.40;;;;;;;2.70;69.58;100062.88;105123;1329;23152;-58
2021/11/18 10:24:38;;;;;;;39.60;21.70;;;;;;;2.75;69.54;100062.23;105208;1325;137924;-58
2021/11/18 10:27:32;;;;;;;41.20;22.20;;;;;;;2.78;69.34;100053.79;106076;1318;22599;-59
2021/11/18 10:30:04;;;;;;;34.20;21.10;;;;;;;2.80;69.57;100048.71;106089;1317;138911;-57
2021/11/18 10:32:53;;;;;;;36.10;23.40;;;;;;;2.82;69.35;100047.20;106120;1316;23131;-57
2021/11/18 10:35:36;;;;;;;46.60;21.60;;;;;;;2.84;69.64;100046.73;106013;1316;139753;-57
2021/11/18 10:38:17;;;;;;;43.60;22.20;;;;;;;2.89;69.50;100042.57;106195;1319;22530;-57
2021/11/18 10:40:52;;;;;;;46.20;25.50;;;;;;;2.92;69.47;100041.55;106041;1318;138226;-57
2021/11/18 10:43:21;;;;;;;40.10;24.30;;;;;;;2.96;69.56;100041.50;106207;1319;22990;-58
2021/11/18 10:45:52;;;;;;;39.30;22.80;;;;;;;2.99;69.45;100037.48;106174;1316;24525;-57
2021/11/18 10:48:28;;;;;;;37.00;21.20;;;;;;;3.02;69.02;100038.17;105485;1322;137929;-58
2021/11/18 10:50:59;;;;;;;35.70;21.80;;;;;;;3.04;69.01;100031.23;106132;1316;22431;-58
2021/11/18 10:53:30;;;;;;;40.30;20.90;;;;;;;3.06;68.97;100030.06;106085;1316;138661;-57
2021/11/18 10:56:09;;;;;;;34.40;21.80;;;;;;;3.08;68.89;100027.34;106253;1316;22595;-58
2021/11/18 10:58:44;;;;;;;39.30;22.80;;;;;;;3.10;69.06;100028.02;106087;1316;138352;-57
2021/11/18 11:01:30;;;;;;;40.70;22.40;;;;;;;3.11;69.05;100023.55;106246;1316;22469;-57
2021/11/18 11:04:00;;;;;;;42.40;22.80;;;;;;;3.14;69.03;100023.54;106194;1316;22597;-57
2021/11/18 11:06:30;;;;;;;40.50;24.20;;;;;;;3.14;69.02;100010.90;106144;1316;137624;-57
2021/11/18 11:09:13;;;;;;;39.00;22.30;;;;;;;3.19;69.00;100009.02;106101;1320;22925;-58
2021/11/18 11:12:19;;;;;;;41.30;23.00;;;;;;;3.22;68.90;100003.48;106111;1318;138365;-56
2021/11/18 11:15:09;;;;;;;41.10;22.70;;;;;;;3.25;68.86;100002.77;106230;1316;22497;-57
2021/11/18 11:18:06;;;;;;;35.70;20.50;;;;;;;3.26;68.83;100006.45;105634;1316;138869;-57
2021/11/18 11:21:01;;;;;;;39.10;21.30;;;;;;;3.27;68.77;99997.60;106242;1316;23512;-57
2021/11/18 11:23:33;;;;;;;38.00;20.60;;;;;;;3.28;68.70;99997.32;105422;1322;139238;-57
2021/11/18 11:26:04;;;;;;;38.80;18.70;;;;;;;3.28;68.91;99996.90;105496;1328;22440;-57